sensor_id;sensor_type;location;lat;lon;timestamp;temperature;humidity
42099;DHT22;27758;55.900;8.516;2023-03-14T00:01:24;8.20;99.90
42099;DHT22;27758;55.900;8.516;2023-03-14T00:03:50;8.20;99.90
42099;DHT22;27758;55.900;8.516;2023-03-14T00:06:17;8.20;99.90
42099;DHT22;27758;55.900;8.516;2023-03-14T00:08:44;8.20;99.90
42099;DHT22;27758;55.900;8.516;2023-03-14T00:11:16;8.20;99.90
42099;DHT22;27758;55.900;8.516;2023-03-14T00:13:42;8.20;99.90
42099;DHT22;27758;55.900;8.516;2023-03-14T00:16:12;8.20;99.90
42099;DHT22;27758;55.900;8.516;2023-03-14T00:18:39;8.20;99.90
42099;DHT22;27758;55.900;8.516;2023-03-14T00:21:06;8.20;99.90
42099;DHT22;27758;55.900;8.516;2023-03-14T00:23:34;8.20;99.90
42099;DHT22;27758;55.900;8.516;2023-03-14T00:26:01;8.20;99.90
42099;DHT22;27758;55.900;8.516;2023-03-14T00:28:28;8.20;99.90
42099;DHT22;27758;55.900;8.516;2023-03-14T00:30:54;8.10;99.90
42099;DHT22;27758;55.900;8.516;2023-03-14T00:33:20;8.20;99.90
42099;DHT22;27758;55.900;8.516;2023-03-14T00:35:58;8.10;99.90
42099;DHT22;27758;55.900;8.516;2023-03-14T00:38:24;8.10;99.90
42099;DHT22;27758;55.900;8.516;2023-03-14T00:40:51;8.10;99.90
42099;DHT22;27758;55.900;8.516;2023-03-14T00:43:18;8.10;99.90
42099;DHT22;27758;55.900;8.516;2023-03-14T00:45:44;8.00;99.90
42099;DHT22;27758;55.900;8.516;2023-03-14T00:48:10;8.00;99.90
42099;DHT22;27758;55.900;8.516;2023-03-14T00:50:36;8.00;99.90
42099;DHT22;27758;55.900;8.516;2023-03-14T00:53:01;8.00;99.90
42099;DHT22;27758;55.900;8.516;2023-03-14T00:55:27;8.00;99.90
42099;DHT22;27758;55.900;8.516;2023-03-14T00:57:53;8.00;99.90
42099;DHT22;27758;55.900;8.516;2023-03-14T01:00:18;8.00;99.90
42099;DHT22;27758;55.900;8.516;2023-03-14T01:02:44;8.00;99.90
42099;DHT22;27758;55.900;8.516;2023-03-14T01:05:10;8.00;99.90
42099;DHT22;27758;55.900;8.516;2023-03-14T01:07:36;8.00;99.90
42099;DHT22;27758;55.900;8.516;2023-03-14T01:10:03;8.00;99.90
42099;DHT22;27758;55.900;8.516;2023-03-14T01:12:29;8.00;99.90
42099;DHT22;27758;55.900;8.516;2023-03-14T01:14:55;8.00;99.90
42099;DHT22;27758;55.900;8.516;2023-03-14T01:17:20;8.00;99.90
42099;DHT22;27758;55.900;8.516;2023-03-14T01:19:48;8.00;99.90
42099;DHT22;27758;55.900;8.516;2023-03-14T01:22:13;8.00;99.90
42099;DHT22;27758;55.900;8.516;2023-03-14T01:24:39;7.90;99.90
42099;DHT22;27758;55.900;8.516;2023-03-14T01:27:05;7.90;99.90
42099;DHT22;27758;55.900;8.516;2023-03-14T01:29:31;7.90;99.90
42099;DHT22;27758;55.900;8.516;2023-03-14T01:31:56;7.90;99.90
42099;DHT22;27758;55.900;8.516;2023-03-14T01:34:22;7.90;99.90
42099;DHT22;27758;55.900;8.516;2023-03-14T01:36:47;7.90;99.90
42099;DHT22;27758;55.900;8.516;2023-03-14T01:39:13;7.90;99.90
42099;DHT22;27758;55.900;8.516;2023-03-14T01:41:40;7.90;99.90
42099;DHT22;27758;55.900;8.516;2023-03-14T01:44:08;7.90;99.90
42099;DHT22;27758;55.900;8.516;2023-03-14T01:46:42;7.90;99.90
42099;DHT22;27758;55.900;8.516;2023-03-14T01:49:33;7.90;99.90
42099;DHT22;27758;55.900;8.516;2023-03-14T01:52:25;7.90;99.90
42099;DHT22;27758;55.900;8.516;2023-03-14T01:54:58;7.90;99.90
42099;DHT22;27758;55.900;8.516;2023-03-14T01:57:49;7.90;99.90
42099;DHT22;27758;55.900;8.516;2023-03-14T02:00:18;7.90;99.90
42099;DHT22;27758;55.900;8.516;2023-03-14T02:02:53;7.90;99.90
42099;DHT22;27758;55.900;8.516;2023-03-14T02:05:31;7.90;99.90
42099;DHT22;27758;55.900;8.516;2023-03-14T02:07:59;7.90;99.90
42099;DHT22;27758;55.900;8.516;2023-03-14T02:10:31;7.90;99.90
42099;DHT22;27758;55.900;8.516;2023-03-14T02:13:00;7.90;99.90
42099;DHT22;27758;55.900;8.516;2023-03-14T02:15:27;7.80;99.90
42099;DHT22;27758;55.900;8.516;2023-03-14T02:17:53;7.80;99.90
42099;DHT22;27758;55.900;8.516;2023-03-14T02:22:51;7.90;99.90
42099;DHT22;27758;55.900;8.516;2023-03-14T02:25:57;7.80;99.90
42099;DHT22;27758;55.900;8.516;2023-03-14T02:28:26;7.90;99.90
42099;DHT22;27758;55.900;8.516;2023-03-14T02:30:52;7.90;99.90
42099;DHT22;27758;55.900;8.516;2023-03-14T02:33:19;7.90;99.90
42099;DHT22;27758;55.900;8.516;2023-03-14T02:36:01;7.80;99.90
42099;DHT22;27758;55.900;8.516;2023-03-14T02:39:00;7.80;99.90
42099;DHT22;27758;55.900;8.516;2023-03-14T02:41:29;7.60;99.90
42099;DHT22;27758;55.900;8.516;2023-03-14T02:43:55;7.20;99.90
42099;DHT22;27758;55.900;8.516;2023-03-14T02:46:21;6.90;99.90
42099;DHT22;27758;55.900;8.516;2023-03-14T02:51:16;6.50;99.90
42099;DHT22;27758;55.900;8.516;2023-03-14T02:53:42;6.40;99.90
42099;DHT22;27758;55.900;8.516;2023-03-14T02:56:09;6.30;99.90
42099;DHT22;27758;55.900;8.516;2023-03-14T02:58:35;6.30;99.90
42099;DHT22;27758;55.900;8.516;2023-03-14T03:01:01;6.30;99.90
42099;DHT22;27758;55.900;8.516;2023-03-14T03:03:26;6.40;99.90
42099;DHT22;27758;55.900;8.516;2023-03-14T03:05:54;6.30;99.90
42099;DHT22;27758;55.900;8.516;2023-03-14T03:08:22;6.30;99.90
42099;DHT22;27758;55.900;8.516;2023-03-14T03:10:48;6.40;99.90
42099;DHT22;27758;55.900;8.516;2023-03-14T03:13:14;6.30;99.90
42099;DHT22;27758;55.900;8.516;2023-03-14T03:15:40;6.30;99.90
42099;DHT22;27758;55.900;8.516;2023-03-14T03:18:06;6.20;99.90
42099;DHT22;27758;55.900;8.516;2023-03-14T03:20:32;6.20;99.90
42099;DHT22;27758;55.900;8.516;2023-03-14T03:23:01;6.10;99.90
42099;DHT22;27758;55.900;8.516;2023-03-14T03:25:27;6.10;99.90
42099;DHT22;27758;55.900;8.516;2023-03-14T03:27:53;6.00;99.90
42099;DHT22;27758;55.900;8.516;2023-03-14T03:30:19;5.90;99.90
42099;DHT22;27758;55.900;8.516;2023-03-14T03:32:44;5.80;99.90
42099;DHT22;27758;55.900;8.516;2023-03-14T03:35:10;5.70;99.90
42099;DHT22;27758;55.900;8.516;2023-03-14T03:37:36;5.70;99.90
42099;DHT22;27758;55.900;8.516;2023-03-14T03:40:02;5.60;99.90
42099;DHT22;27758;55.900;8.516;2023-03-14T03:42:31;5.60;99.90
42099;DHT22;27758;55.900;8.516;2023-03-14T03:44:57;5.50;99.90
42099;DHT22;27758;55.900;8.516;2023-03-14T03:47:23;5.50;99.90
42099;DHT22;27758;55.900;8.516;2023-03-14T03:49:48;5.40;99.90
42099;DHT22;27758;55.900;8.516;2023-03-14T03:52:14;5.40;99.90
42099;DHT22;27758;55.900;8.516;2023-03-14T03:54:40;5.40;99.90
42099;DHT22;27758;55.900;8.516;2023-03-14T03:57:06;5.30;99.90
42099;DHT22;27758;55.900;8.516;2023-03-14T03:59:31;5.40;99.90
42099;DHT22;27758;55.900;8.516;2023-03-14T04:01:57;5.30;99.90
42099;DHT22;27758;55.900;8.516;2023-03-14T04:04:23;5.30;99.90
42099;DHT22;27758;55.900;8.516;2023-03-14T04:06:48;5.30;99.90
42099;DHT22;27758;55.900;8.516;2023-03-14T04:09:14;5.30;99.90
42099;DHT22;27758;55.900;8.516;2023-03-14T04:11:40;5.20;99.90
42099;DHT22;27758;55.900;8.516;2023-03-14T04:14:07;5.10;99.90
42099;DHT22;27758;55.900;8.516;2023-03-14T04:16:33;5.00;99.90
42099;DHT22;27758;55.900;8.516;2023-03-14T04:19:00;5.00;99.90
42099;DHT22;27758;55.900;8.516;2023-03-14T04:21:26;5.00;99.90
42099;DHT22;27758;55.900;8.516;2023-03-14T04:23:52;5.00;99.90
42099;DHT22;27758;55.900;8.516;2023-03-14T04:26:17;4.90;99.90
42099;DHT22;27758;55.900;8.516;2023-03-14T04:28:43;4.90;99.90
42099;DHT22;27758;55.900;8.516;2023-03-14T04:31:11;4.80;99.90
42099;DHT22;27758;55.900;8.516;2023-03-14T04:33:37;4.80;99.90
42099;DHT22;27758;55.900;8.516;2023-03-14T04:36:04;4.70;99.90
42099;DHT22;27758;55.900;8.516;2023-03-14T04:38:30;4.70;99.90
42099;DHT22;27758;55.900;8.516;2023-03-14T04:40:55;4.60;99.90
42099;DHT22;27758;55.900;8.516;2023-03-14T04:43:21;4.60;99.90
42099;DHT22;27758;55.900;8.516;2023-03-14T04:45:47;4.60;99.90
42099;DHT22;27758;55.900;8.516;2023-03-14T04:48:12;4.50;99.90
42099;DHT22;27758;55.900;8.516;2023-03-14T04:50:38;4.40;99.90
42099;DHT22;27758;55.900;8.516;2023-03-14T04:53:04;4.30;99.90
42099;DHT22;27758;55.900;8.516;2023-03-14T04:55:31;4.30;99.90
42099;DHT22;27758;55.900;8.516;2023-03-14T04:57:58;4.30;99.90
42099;DHT22;27758;55.900;8.516;2023-03-14T05:00:24;4.30;99.90
42099;DHT22;27758;55.900;8.516;2023-03-14T05:02:49;4.30;99.90
42099;DHT22;27758;55.900;8.516;2023-03-14T05:05:15;4.30;99.90
42099;DHT22;27758;55.900;8.516;2023-03-14T05:07:41;4.20;99.90
42099;DHT22;27758;55.900;8.516;2023-03-14T05:10:08;4.20;99.90
42099;DHT22;27758;55.900;8.516;2023-03-14T05:12:34;4.20;99.90
42099;DHT22;27758;55.900;8.516;2023-03-14T05:14:59;4.00;99.90
42099;DHT22;27758;55.900;8.516;2023-03-14T05:17:25;4.00;99.90
42099;DHT22;27758;55.900;8.516;2023-03-14T05:19:51;3.90;99.90
42099;DHT22;27758;55.900;8.516;2023-03-14T05:22:17;3.80;99.90
42099;DHT22;27758;55.900;8.516;2023-03-14T05:24:43;3.80;99.90
42099;DHT22;27758;55.900;8.516;2023-03-14T05:27:08;3.60;99.90
42099;DHT22;27758;55.900;8.516;2023-03-14T05:29:34;3.50;99.90
42099;DHT22;27758;55.900;8.516;2023-03-14T05:32:00;3.50;99.90
42099;DHT22;27758;55.900;8.516;2023-03-14T05:34:26;3.50;99.90
42099;DHT22;27758;55.900;8.516;2023-03-14T05:36:51;3.40;99.90
42099;DHT22;27758;55.900;8.516;2023-03-14T05:39:17;3.30;99.90
42099;DHT22;27758;55.900;8.516;2023-03-14T05:41:43;3.20;99.90
42099;DHT22;27758;55.900;8.516;2023-03-14T05:44:15;3.20;99.90
42099;DHT22;27758;55.900;8.516;2023-03-14T05:46:40;3.20;99.90
42099;DHT22;27758;55.900;8.516;2023-03-14T05:49:06;3.20;99.90
42099;DHT22;27758;55.900;8.516;2023-03-14T05:51:32;3.30;99.90
42099;DHT22;27758;55.900;8.516;2023-03-14T05:53:57;3.20;99.90
42099;DHT22;27758;55.900;8.516;2023-03-14T05:56:23;3.20;99.90
42099;DHT22;27758;55.900;8.516;2023-03-14T05:58:49;3.20;99.90
42099;DHT22;27758;55.900;8.516;2023-03-14T06:01:14;3.10;99.90
42099;DHT22;27758;55.900;8.516;2023-03-14T06:03:40;3.10;99.90
42099;DHT22;27758;55.900;8.516;2023-03-14T06:06:06;3.10;99.90
42099;DHT22;27758;55.900;8.516;2023-03-14T06:08:32;3.10;99.90
42099;DHT22;27758;55.900;8.516;2023-03-14T06:10:57;3.10;99.90
42099;DHT22;27758;55.900;8.516;2023-03-14T06:13:23;3.20;99.90
42099;DHT22;27758;55.900;8.516;2023-03-14T06:15:49;3.20;99.90
42099;DHT22;27758;55.900;8.516;2023-03-14T06:18:15;3.30;99.90
42099;DHT22;27758;55.900;8.516;2023-03-14T06:20:41;3.30;99.90
42099;DHT22;27758;55.900;8.516;2023-03-14T06:23:08;3.40;99.90
42099;DHT22;27758;55.900;8.516;2023-03-14T06:25:34;3.40;99.90
42099;DHT22;27758;55.900;8.516;2023-03-14T06:28:00;3.40;99.90
42099;DHT22;27758;55.900;8.516;2023-03-14T06:30:26;3.40;99.90
42099;DHT22;27758;55.900;8.516;2023-03-14T06:32:52;3.50;99.90
42099;DHT22;27758;55.900;8.516;2023-03-14T06:35:18;3.60;99.90
42099;DHT22;27758;55.900;8.516;2023-03-14T06:37:44;3.60;99.90
42099;DHT22;27758;55.900;8.516;2023-03-14T06:40:11;3.60;99.90
42099;DHT22;27758;55.900;8.516;2023-03-14T06:42:39;3.60;99.90
42099;DHT22;27758;55.900;8.516;2023-03-14T06:45:05;3.60;99.90
42099;DHT22;27758;55.900;8.516;2023-03-14T06:47:31;3.50;99.90
42099;DHT22;27758;55.900;8.516;2023-03-14T06:49:57;3.50;99.90
42099;DHT22;27758;55.900;8.516;2023-03-14T06:52:22;3.50;99.90
42099;DHT22;27758;55.900;8.516;2023-03-14T06:54:48;3.60;99.90
42099;DHT22;27758;55.900;8.516;2023-03-14T06:57:14;3.50;99.90
42099;DHT22;27758;55.900;8.516;2023-03-14T06:59:39;3.50;99.90
42099;DHT22;27758;55.900;8.516;2023-03-14T07:02:10;3.60;99.90
42099;DHT22;27758;55.900;8.516;2023-03-14T07:04:35;3.60;99.90
42099;DHT22;27758;55.900;8.516;2023-03-14T07:07:04;3.60;99.90
42099;DHT22;27758;55.900;8.516;2023-03-14T07:09:31;3.60;99.90
42099;DHT22;27758;55.900;8.516;2023-03-14T07:11:57;3.60;99.90
42099;DHT22;27758;55.900;8.516;2023-03-14T07:14:23;3.70;99.90
42099;DHT22;27758;55.900;8.516;2023-03-14T07:16:49;3.70;99.90
42099;DHT22;27758;55.900;8.516;2023-03-14T07:19:15;3.80;99.90
42099;DHT22;27758;55.900;8.516;2023-03-14T07:21:40;3.80;99.90
42099;DHT22;27758;55.900;8.516;2023-03-14T07:24:06;3.90;99.90
42099;DHT22;27758;55.900;8.516;2023-03-14T07:26:32;3.90;99.90
42099;DHT22;27758;55.900;8.516;2023-03-14T07:28:58;3.90;99.90
42099;DHT22;27758;55.900;8.516;2023-03-14T07:31:23;4.00;99.90
42099;DHT22;27758;55.900;8.516;2023-03-14T07:33:49;4.00;99.90
42099;DHT22;27758;55.900;8.516;2023-03-14T07:36:15;4.00;99.90
42099;DHT22;27758;55.900;8.516;2023-03-14T07:38:43;4.10;99.90
42099;DHT22;27758;55.900;8.516;2023-03-14T07:41:09;4.10;99.90
42099;DHT22;27758;55.900;8.516;2023-03-14T07:43:35;4.10;99.90
42099;DHT22;27758;55.900;8.516;2023-03-14T07:46:01;4.20;99.90
42099;DHT22;27758;55.900;8.516;2023-03-14T07:48:26;4.20;99.90
42099;DHT22;27758;55.900;8.516;2023-03-14T07:50:54;4.30;99.90
42099;DHT22;27758;55.900;8.516;2023-03-14T07:53:20;4.30;99.90
42099;DHT22;27758;55.900;8.516;2023-03-14T07:55:47;4.40;99.90
42099;DHT22;27758;55.900;8.516;2023-03-14T07:58:13;4.40;99.90
42099;DHT22;27758;55.900;8.516;2023-03-14T08:00:39;4.40;99.90
42099;DHT22;27758;55.900;8.516;2023-03-14T08:03:05;4.50;99.90
42099;DHT22;27758;55.900;8.516;2023-03-14T08:05:37;4.60;99.90
42099;DHT22;27758;55.900;8.516;2023-03-14T08:08:03;4.60;99.90
42099;DHT22;27758;55.900;8.516;2023-03-14T08:10:30;4.70;99.90
42099;DHT22;27758;55.900;8.516;2023-03-14T08:12:57;4.80;99.90
42099;DHT22;27758;55.900;8.516;2023-03-14T08:15:23;4.90;99.90
42099;DHT22;27758;55.900;8.516;2023-03-14T08:17:50;5.00;99.90
42099;DHT22;27758;55.900;8.516;2023-03-14T08:20:25;5.10;99.90
42099;DHT22;27758;55.900;8.516;2023-03-14T08:22:51;5.10;99.90
42099;DHT22;27758;55.900;8.516;2023-03-14T08:25:17;5.00;99.90
42099;DHT22;27758;55.900;8.516;2023-03-14T08:27:44;5.00;99.90
42099;DHT22;27758;55.900;8.516;2023-03-14T08:30:12;5.00;99.90
42099;DHT22;27758;55.900;8.516;2023-03-14T08:32:38;4.90;99.90
42099;DHT22;27758;55.900;8.516;2023-03-14T08:35:05;4.90;99.90
42099;DHT22;27758;55.900;8.516;2023-03-14T08:37:31;4.90;99.90
42099;DHT22;27758;55.900;8.516;2023-03-14T08:39:57;5.00;99.90
42099;DHT22;27758;55.900;8.516;2023-03-14T08:42:23;5.00;99.90
42099;DHT22;27758;55.900;8.516;2023-03-14T08:44:50;5.10;99.90
42099;DHT22;27758;55.900;8.516;2023-03-14T08:47:16;5.00;99.90
42099;DHT22;27758;55.900;8.516;2023-03-14T08:49:42;5.10;99.90
42099;DHT22;27758;55.900;8.516;2023-03-14T08:52:08;5.10;99.90
42099;DHT22;27758;55.900;8.516;2023-03-14T08:54:34;5.20;99.90
42099;DHT22;27758;55.900;8.516;2023-03-14T08:56:59;5.10;99.90
42099;DHT22;27758;55.900;8.516;2023-03-14T08:59:25;5.10;99.90
42099;DHT22;27758;55.900;8.516;2023-03-14T09:01:51;5.20;99.90
42099;DHT22;27758;55.900;8.516;2023-03-14T09:04:17;5.30;99.90
42099;DHT22;27758;55.900;8.516;2023-03-14T09:06:42;5.30;99.90
42099;DHT22;27758;55.900;8.516;2023-03-14T09:09:08;5.20;99.90
42099;DHT22;27758;55.900;8.516;2023-03-14T09:11:34;5.10;99.90
42099;DHT22;27758;55.900;8.516;2023-03-14T09:14:00;5.00;99.90
42099;DHT22;27758;55.900;8.516;2023-03-14T09:16:26;5.00;99.90
42099;DHT22;27758;55.900;8.516;2023-03-14T09:18:52;5.10;99.90
42099;DHT22;27758;55.900;8.516;2023-03-14T09:21:23;5.10;99.90
42099;DHT22;27758;55.900;8.516;2023-03-14T09:23:48;5.30;99.90
42099;DHT22;27758;55.900;8.516;2023-03-14T09:26:14;5.30;99.90
42099;DHT22;27758;55.900;8.516;2023-03-14T09:28:40;5.50;99.90
42099;DHT22;27758;55.900;8.516;2023-03-14T09:31:08;5.90;99.90
42099;DHT22;27758;55.900;8.516;2023-03-14T09:33:34;6.40;99.90
42099;DHT22;27758;55.900;8.516;2023-03-14T09:36:00;6.70;99.90
42099;DHT22;27758;55.900;8.516;2023-03-14T09:38:27;6.70;99.90
42099;DHT22;27758;55.900;8.516;2023-03-14T09:40:54;6.80;99.90
42099;DHT22;27758;55.900;8.516;2023-03-14T09:43:21;6.60;99.90
42099;DHT22;27758;55.900;8.516;2023-03-14T09:45:48;6.70;99.90
42099;DHT22;27758;55.900;8.516;2023-03-14T09:48:19;6.60;99.90
42099;DHT22;27758;55.900;8.516;2023-03-14T09:50:48;6.40;99.90
42099;DHT22;27758;55.900;8.516;2023-03-14T09:53:42;6.20;99.90
42099;DHT22;27758;55.900;8.516;2023-03-14T09:56:15;6.40;99.90
42099;DHT22;27758;55.900;8.516;2023-03-14T09:58:45;6.60;99.90
42099;DHT22;27758;55.900;8.516;2023-03-14T10:01:16;6.70;99.90
42099;DHT22;27758;55.900;8.516;2023-03-14T10:03:45;7.00;99.90
42099;DHT22;27758;55.900;8.516;2023-03-14T10:06:12;7.50;99.90
42099;DHT22;27758;55.900;8.516;2023-03-14T10:08:43;7.80;99.90
42099;DHT22;27758;55.900;8.516;2023-03-14T10:11:15;8.00;99.90
42099;DHT22;27758;55.900;8.516;2023-03-14T10:14:11;8.00;99.90
42099;DHT22;27758;55.900;8.516;2023-03-14T10:16:43;8.10;99.90
42099;DHT22;27758;55.900;8.516;2023-03-14T10:19:15;8.40;99.90
42099;DHT22;27758;55.900;8.516;2023-03-14T10:21:51;8.60;99.90
42099;DHT22;27758;55.900;8.516;2023-03-14T10:24:27;8.60;99.90
42099;DHT22;27758;55.900;8.516;2023-03-14T10:27:19;8.50;99.90
42099;DHT22;27758;55.900;8.516;2023-03-14T10:29:54;8.40;99.90
42099;DHT22;27758;55.900;8.516;2023-03-14T10:32:22;8.40;99.90
42099;DHT22;27758;55.900;8.516;2023-03-14T10:35:06;8.60;99.90
42099;DHT22;27758;55.900;8.516;2023-03-14T10:37:33;8.70;99.90
42099;DHT22;27758;55.900;8.516;2023-03-14T10:40:00;8.50;99.90
42099;DHT22;27758;55.900;8.516;2023-03-14T10:42:39;8.50;99.90
42099;DHT22;27758;55.900;8.516;2023-03-14T10:47:49;8.50;99.90
42099;DHT22;27758;55.900;8.516;2023-03-14T10:50:24;8.40;99.90
42099;DHT22;27758;55.900;8.516;2023-03-14T10:52:52;8.70;99.90
42099;DHT22;27758;55.900;8.516;2023-03-14T10:55:18;8.80;99.90
42099;DHT22;27758;55.900;8.516;2023-03-14T10:57:44;8.70;99.90
42099;DHT22;27758;55.900;8.516;2023-03-14T11:00:21;8.80;99.90
42099;DHT22;27758;55.900;8.516;2023-03-14T11:08:01;8.40;99.90
42099;DHT22;27758;55.900;8.516;2023-03-14T11:10:34;8.30;99.90
42099;DHT22;27758;55.900;8.516;2023-03-14T11:13:25;8.20;99.90
42099;DHT22;27758;55.900;8.516;2023-03-14T11:29:23;8.60;99.90
42099;DHT22;27758;55.900;8.516;2023-03-14T11:31:56;8.60;99.90
42099;DHT22;27758;55.900;8.516;2023-03-14T11:34:28;8.60;99.90
42099;DHT22;27758;55.900;8.516;2023-03-14T11:40:17;7.70;99.90
42099;DHT22;27758;55.900;8.516;2023-03-14T11:42:43;7.90;99.90
42099;DHT22;27758;55.900;8.516;2023-03-14T11:45:23;8.30;99.90
42099;DHT22;27758;55.900;8.516;2023-03-14T11:48:11;8.50;99.90
42099;DHT22;27758;55.900;8.516;2023-03-14T11:50:39;8.40;99.90
42099;DHT22;27758;55.900;8.516;2023-03-14T11:53:21;8.70;99.90
42099;DHT22;27758;55.900;8.516;2023-03-14T11:55:48;9.00;99.90
42099;DHT22;27758;55.900;8.516;2023-03-14T11:58:26;9.10;99.90
42099;DHT22;27758;55.900;8.516;2023-03-14T12:00:54;9.00;99.90
42099;DHT22;27758;55.900;8.516;2023-03-14T12:06:22;8.90;99.90
42099;DHT22;27758;55.900;8.516;2023-03-14T12:08:51;8.90;99.90
42099;DHT22;27758;55.900;8.516;2023-03-14T12:11:35;8.80;99.90
42099;DHT22;27758;55.900;8.516;2023-03-14T12:14:18;8.80;99.90
42099;DHT22;27758;55.900;8.516;2023-03-14T12:16:46;8.50;99.90
42099;DHT22;27758;55.900;8.516;2023-03-14T12:21:54;6.90;99.90
42099;DHT22;27758;55.900;8.516;2023-03-14T12:24:34;6.30;99.90
42099;DHT22;27758;55.900;8.516;2023-03-14T12:27:02;6.50;99.90
42099;DHT22;27758;55.900;8.516;2023-03-14T12:29:29;6.50;99.90
42099;DHT22;27758;55.900;8.516;2023-03-14T12:32:12;6.30;99.90
42099;DHT22;27758;55.900;8.516;2023-03-14T12:34:45;6.30;99.90
42099;DHT22;27758;55.900;8.516;2023-03-14T12:37:33;6.40;99.90
42099;DHT22;27758;55.900;8.516;2023-03-14T12:40:21;6.90;99.90
42099;DHT22;27758;55.900;8.516;2023-03-14T12:43:00;7.30;99.90
42099;DHT22;27758;55.900;8.516;2023-03-14T12:45:30;7.90;99.90
42099;DHT22;27758;55.900;8.516;2023-03-14T12:50:38;8.20;99.90
42099;DHT22;27758;55.900;8.516;2023-03-14T13:01:17;8.80;99.90
42099;DHT22;27758;55.900;8.516;2023-03-14T13:06:45;8.80;99.90
42099;DHT22;27758;55.900;8.516;2023-03-14T13:08:57;8.80;99.90
42099;DHT22;27758;55.900;8.516;2023-03-14T13:11:23;8.50;99.90
42099;DHT22;27758;55.900;8.516;2023-03-14T13:13:59;8.50;99.90
42099;DHT22;27758;55.900;8.516;2023-03-14T13:16:25;8.40;99.90
42099;DHT22;27758;55.900;8.516;2023-03-14T13:19:00;8.00;99.90
42099;DHT22;27758;55.900;8.516;2023-03-14T13:21:34;8.20;99.90
42099;DHT22;27758;55.900;8.516;2023-03-14T13:24:06;8.30;99.90
42099;DHT22;27758;55.900;8.516;2023-03-14T13:26:41;8.40;99.90
42099;DHT22;27758;55.900;8.516;2023-03-14T13:29:28;8.40;99.90
42099;DHT22;27758;55.900;8.516;2023-03-14T13:32:22;8.40;99.90
42099;DHT22;27758;55.900;8.516;2023-03-14T13:34:56;8.30;99.90
42099;DHT22;27758;55.900;8.516;2023-03-14T13:37:26;8.30;99.90
42099;DHT22;27758;55.900;8.516;2023-03-14T13:39:53;8.40;99.90
42099;DHT22;27758;55.900;8.516;2023-03-14T13:42:25;8.40;99.90
42099;DHT22;27758;55.900;8.516;2023-03-14T13:44:52;8.30;99.90
42099;DHT22;27758;55.900;8.516;2023-03-14T13:47:21;8.00;99.90
42099;DHT22;27758;55.900;8.516;2023-03-14T13:49:48;8.20;99.90
42099;DHT22;27758;55.900;8.516;2023-03-14T13:54:59;8.20;99.90
42099;DHT22;27758;55.900;8.516;2023-03-14T13:57:25;8.00;99.90
42099;DHT22;27758;55.900;8.516;2023-03-14T14:00:06;8.10;99.90
42099;DHT22;27758;55.900;8.516;2023-03-14T14:02:37;7.90;99.90
42099;DHT22;27758;55.900;8.516;2023-03-14T14:05:04;8.10;99.90
42099;DHT22;27758;55.900;8.516;2023-03-14T14:07:34;8.20;99.90
42099;DHT22;27758;55.900;8.516;2023-03-14T14:10:00;8.30;99.90
42099;DHT22;27758;55.900;8.516;2023-03-14T14:12:36;8.30;99.90
42099;DHT22;27758;55.900;8.516;2023-03-14T14:15:31;8.00;99.90
42099;DHT22;27758;55.900;8.516;2023-03-14T14:18:03;7.60;99.90
42099;DHT22;27758;55.900;8.516;2023-03-14T14:20:34;7.40;99.90
42099;DHT22;27758;55.900;8.516;2023-03-14T14:23:05;7.70;99.90
42099;DHT22;27758;55.900;8.516;2023-03-14T14:25:32;7.90;99.90
42099;DHT22;27758;55.900;8.516;2023-03-14T14:27:58;7.80;99.90
42099;DHT22;27758;55.900;8.516;2023-03-14T14:33:11;7.90;99.90
42099;DHT22;27758;55.900;8.516;2023-03-14T14:35:37;7.80;99.90
42099;DHT22;27758;55.900;8.516;2023-03-14T14:38:11;7.60;99.90
42099;DHT22;27758;55.900;8.516;2023-03-14T14:40:44;7.30;99.90
42099;DHT22;27758;55.900;8.516;2023-03-14T14:43:20;7.30;99.90
42099;DHT22;27758;55.900;8.516;2023-03-14T14:45:49;7.40;99.90
42099;DHT22;27758;55.900;8.516;2023-03-14T14:48:27;7.30;99.90
42099;DHT22;27758;55.900;8.516;2023-03-14T14:51:00;7.30;99.90
42099;DHT22;27758;55.900;8.516;2023-03-14T14:53:39;7.30;99.90
42099;DHT22;27758;55.900;8.516;2023-03-14T14:56:20;7.30;99.90
42099;DHT22;27758;55.900;8.516;2023-03-14T14:59:00;7.10;99.90
42099;DHT22;27758;55.900;8.516;2023-03-14T15:01:37;7.10;99.90
42099;DHT22;27758;55.900;8.516;2023-03-14T15:04:11;7.10;99.90
42099;DHT22;27758;55.900;8.516;2023-03-14T15:06:40;7.20;99.90
42099;DHT22;27758;55.900;8.516;2023-03-14T15:09:12;7.00;99.90
42099;DHT22;27758;55.900;8.516;2023-03-14T15:11:37;6.80;99.90
42099;DHT22;27758;55.900;8.516;2023-03-14T15:14:03;6.70;99.90
42099;DHT22;27758;55.900;8.516;2023-03-14T15:16:32;6.50;99.90
42099;DHT22;27758;55.900;8.516;2023-03-14T15:19:00;6.60;99.90
42099;DHT22;27758;55.900;8.516;2023-03-14T15:21:28;6.90;99.90
42099;DHT22;27758;55.900;8.516;2023-03-14T15:23:57;6.90;99.90
42099;DHT22;27758;55.900;8.516;2023-03-14T15:26:27;6.90;99.90
42099;DHT22;27758;55.900;8.516;2023-03-14T15:28:53;6.60;99.90
42099;DHT22;27758;55.900;8.516;2023-03-14T15:31:20;6.50;99.90
42099;DHT22;27758;55.900;8.516;2023-03-14T15:33:47;6.20;99.90
42099;DHT22;27758;55.900;8.516;2023-03-14T15:36:27;6.00;99.90
42099;DHT22;27758;55.900;8.516;2023-03-14T15:38:54;6.00;99.90
42099;DHT22;27758;55.900;8.516;2023-03-14T15:41:21;6.00;99.90
42099;DHT22;27758;55.900;8.516;2023-03-14T15:43:47;6.10;99.90
42099;DHT22;27758;55.900;8.516;2023-03-14T15:46:13;6.10;99.90
42099;DHT22;27758;55.900;8.516;2023-03-14T15:48:40;6.20;99.90
42099;DHT22;27758;55.900;8.516;2023-03-14T15:51:06;6.20;99.90
42099;DHT22;27758;55.900;8.516;2023-03-14T15:53:35;6.20;99.90
42099;DHT22;27758;55.900;8.516;2023-03-14T15:56:10;6.20;99.90
42099;DHT22;27758;55.900;8.516;2023-03-14T15:58:36;6.10;99.90
42099;DHT22;27758;55.900;8.516;2023-03-14T16:01:06;6.00;99.90
42099;DHT22;27758;55.900;8.516;2023-03-14T16:03:34;5.90;99.90
42099;DHT22;27758;55.900;8.516;2023-03-14T16:06:00;5.70;99.90
42099;DHT22;27758;55.900;8.516;2023-03-14T16:08:27;5.70;99.90
42099;DHT22;27758;55.900;8.516;2023-03-14T16:10:55;5.80;99.90
42099;DHT22;27758;55.900;8.516;2023-03-14T16:13:22;5.70;99.90
42099;DHT22;27758;55.900;8.516;2023-03-14T16:15:55;5.60;99.90
42099;DHT22;27758;55.900;8.516;2023-03-14T16:18:21;5.50;99.90
42099;DHT22;27758;55.900;8.516;2023-03-14T16:20:55;5.40;99.90
42099;DHT22;27758;55.900;8.516;2023-03-14T16:23:21;5.40;99.90
42099;DHT22;27758;55.900;8.516;2023-03-14T16:25:47;5.30;99.90
42099;DHT22;27758;55.900;8.516;2023-03-14T16:28:12;5.30;99.90
42099;DHT22;27758;55.900;8.516;2023-03-14T16:30:38;5.30;99.90
42099;DHT22;27758;55.900;8.516;2023-03-14T16:33:04;5.20;99.90
42099;DHT22;27758;55.900;8.516;2023-03-14T16:35:36;5.20;99.90
42099;DHT22;27758;55.900;8.516;2023-03-14T16:38:03;5.20;99.90
42099;DHT22;27758;55.900;8.516;2023-03-14T16:40:29;5.20;99.90
42099;DHT22;27758;55.900;8.516;2023-03-14T16:42:55;5.40;99.90
42099;DHT22;27758;55.900;8.516;2023-03-14T16:45:21;5.40;99.90
42099;DHT22;27758;55.900;8.516;2023-03-14T16:47:46;5.40;99.90
42099;DHT22;27758;55.900;8.516;2023-03-14T16:50:12;5.30;99.90